KMIE/MIE METAR and TAF weather

Enter ICAO airport designator
Station Type Date Time Source
KMIE METAR 2021/08/05 02:53 UTC NOAA

KMIE 050253Z AUTO 00000KT 10SM CLR 18/14 A3013 RMK AO2 SLP195 T01780139 53012


Station Type Date Time Source
KMIE Decoded METAR 2021/08/05 02:53 UTC NOAA

MUNCIE DELAWARE JOHNSON, IN, United States (KMIE) 40-14N 85-24W 285M
Aug 04, 2021 - 10:53 PM EDT / 2021.08.05 0253 UTC
Wind: Calm:0
Visibility: 10 mile(s):0
Sky conditions: clear
Temperature: 64.0 F (17.8 C)
Dew Point: 57.0 F (13.9 C)
Relative Humidity: 77%
Pressure (altimeter): 30.13 in. Hg (1020 hPa)
Pressure tendency: 0.04 inches (1.2 hPa) higher than three hours ago
ob: KMIE 050253Z AUTO 00000KT 10SM CLR 18/14 A3013 RMK AO2 SLP195 T01780139 53012
cycle: 3

Station Type Date Time Source
KMIE TAF UTC NOAA

Error!

Example: see airport list